Time;durP1;ratioP1;P1;durP2;ratioP2;P2;SDS_P1;SDS_P2;PMS_P1;PMS_P2;Temp;Humidity;BMP_temperature;BMP_pressure;BME280_temperature;BME280_humidity;BME280_pressure;Samples;Min_cycle;Max_cycle;Signal;HPM_P1;HPM_P2
2023/10/04 00:01:15;;;;;;;11.32;1.75;;;;;;;11.72;82.02;99850.88;5062477;28;20127;-72
2023/10/04 00:03:42;;;;;;;4.95;0.60;;;;;;;11.71;81.95;99838.72;5063964;28;20572;-72
2023/10/04 00:06:09;;;;;;;3.13;0.60;;;;;;;11.71;81.88;99843.97;5063622;28;20796;-72
2023/10/04 00:08:37;;;;;;;2.92;1.15;;;;;;;11.72;81.88;99845.66;5057549;28;20701;-72
2023/10/04 00:11:04;;;;;;;6.18;1.13;;;;;;;11.68;81.64;99839.69;5065094;28;20041;-72
2023/10/04 00:13:33;;;;;;;5.85;0.98;;;;;;;11.70;81.84;99845.72;5058996;28;20157;-72
2023/10/04 00:16:00;;;;;;;2.70;0.93;;;;;;;11.70;81.58;99842.25;5063941;28;20048;-72
2023/10/04 00:18:28;;;;;;;7.10;0.80;;;;;;;11.70;81.67;99843.13;5055776;28;20063;-79
2023/10/04 00:20:55;;;;;;;6.88;0.60;;;;;;;11.69;81.61;99849.22;5056617;28;20098;-80
2023/10/04 00:23:22;;;;;;;4.07;1.05;;;;;;;11.69;81.67;99851.84;5065769;28;20468;-80
2023/10/04 00:25:50;;;;;;;2.00;0.50;;;;;;;11.65;81.50;99844.19;5068718;28;20127;-80
2023/10/04 00:28:17;;;;;;;2.78;0.75;;;;;;;11.68;81.67;99857.16;5064579;28;20045;-80
2023/10/04 00:30:44;;;;;;;2.15;0.50;;;;;;;11.67;81.46;99865.94;5060544;28;20499;-80
2023/10/04 00:33:12;;;;;;;3.45;0.52;;;;;;;11.63;81.30;99861.69;5064255;28;20061;-80
2023/10/04 00:35:40;;;;;;;3.25;0.65;;;;;;;11.64;81.25;99869.50;5067649;28;20037;-80
2023/10/04 00:38:09;;;;;;;7.13;1.00;;;;;;;11.62;81.36;99871.31;5070830;28;20052;-79
2023/10/04 00:40:37;;;;;;;6.50;0.55;;;;;;;11.63;81.27;99882.63;5062085;28;20053;-79
2023/10/04 00:43:08;;;;;;;4.43;0.75;;;;;;;11.63;81.35;99877.41;5075180;28;20054;-79
2023/10/04 00:45:36;;;;;;;5.20;1.30;;;;;;;11.61;81.30;99879.22;5056655;28;20126;-78
2023/10/04 00:48:08;;;;;;;11.15;0.85;;;;;;;11.58;81.39;99882.78;5068154;28;20135;-77
2023/10/04 00:50:36;;;;;;;4.15;0.60;;;;;;;11.58;81.43;99881.94;5066363;28;20041;-79
2023/10/04 00:53:06;;;;;;;7.40;0.70;;;;;;;11.59;81.48;99891.50;5068105;28;20048;-79
2023/10/04 00:55:34;;;;;;;4.53;0.60;;;;;;;11.57;81.34;99890.72;5071376;28;20048;-78
2023/10/04 00:58:05;;;;;;;4.30;0.60;;;;;;;11.58;81.31;99895.03;5063962;28;20145;-79
2023/10/04 01:00:34;;;;;;;8.98;0.90;;;;;;;11.57;81.22;99891.56;5070787;28;20051;-79
2023/10/04 01:03:02;;;;;;;3.65;0.50;;;;;;;11.57;81.50;99891.56;5069394;28;20098;-77
2023/10/04 01:05:30;;;;;;;6.47;0.80;;;;;;;11.56;81.48;99908.16;5059730;28;20051;-79
2023/10/04 01:07:58;;;;;;;7.45;0.73;;;;;;;11.53;81.21;99902.22;5060558;28;20067;-71
2023/10/04 01:10:30;;;;;;;3.53;0.63;;;;;;;11.55;81.55;99910.81;5071963;28;20420;-71
2023/10/04 01:12:57;;;;;;;3.95;1.42;;;;;;;11.51;81.40;99904.88;5066362;28;20076;-70
2023/10/04 01:15:30;;;;;;;6.68;0.80;;;;;;;11.54;81.36;99901.28;5063724;28;20496;-71
2023/10/04 01:17:59;;;;;;;4.60;0.90;;;;;;;11.52;81.19;99910.94;5067683;28;20060;-71
2023/10/04 01:20:29;;;;;;;5.95;0.70;;;;;;;11.47;81.35;99901.50;5061970;28;20036;-71
2023/10/04 01:23:00;;;;;;;7.03;0.70;;;;;;;11.48;81.38;99903.22;5061238;28;20053;-72
2023/10/04 01:25:31;;;;;;;4.72;0.77;;;;;;;11.48;80.96;99905.81;5056625;28;20569;-72
2023/10/04 01:27:59;;;;;;;2.17;0.75;;;;;;;11.48;81.20;99916.28;5068549;28;20041;-84
2023/10/04 01:30:26;;;;;;;3.90;0.90;;;;;;;11.34;81.08;99892.38;5065025;28;20052;-85
2023/10/04 01:32:53;;;;;;;4.25;0.85;;;;;;;11.44;81.00;99912.09;5076609;28;20048;-83
2023/10/04 01:35:23;;;;;;;3.92;0.50;;;;;;;11.42;80.90;99911.28;5071164;28;20043;-84
2023/10/04 01:37:50;;;;;;;5.13;0.63;;;;;;;11.44;80.99;99916.44;5068406;28;20044;-84
2023/10/04 01:40:22;;;;;;;9.05;0.80;;;;;;;11.37;81.13;99904.50;5059582;28;20843;-83
2023/10/04 01:42:49;;;;;;;3.25;0.80;;;;;;;11.41;81.07;99919.16;5063898;28;20094;-85
2023/10/04 01:45:18;;;;;;;5.30;1.02;;;;;;;11.33;81.08;99916.00;5064492;28;20048;-83
2023/10/04 01:47:46;;;;;;;4.47;0.93;;;;;;;11.39;81.14;99927.09;5077085;28;20051;-85
2023/10/04 01:50:13;;;;;;;7.32;0.70;;;;;;;11.38;81.17;99925.34;5070307;28;20047;-83
2023/10/04 01:52:40;;;;;;;6.57;0.80;;;;;;;11.36;81.34;99923.72;5071176;28;20074;-84
2023/10/04 01:55:10;;;;;;;2.90;0.60;;;;;;;11.35;81.29;99922.84;5055344;28;20493;-84
2023/10/04 01:57:41;;;;;;;3.90;0.85;;;;;;;11.35;81.19;99928.06;5063988;28;20489;-83
2023/10/04 02:00:10;;;;;;;5.63;0.80;;;;;;;11.33;81.15;99923.84;5064590;28;20048;-84
2023/10/04 02:02:38;;;;;;;2.97;0.70;;;;;;;11.34;81.28;99923.75;5061003;28;20059;-83
2023/10/04 02:05:09;;;;;;;3.28;0.82;;;;;;;11.34;81.14;99933.38;5070574;28;20091;-84
2023/10/04 02:07:38;;;;;;;5.30;0.93;;;;;;;11.32;81.05;99927.34;5066557;28;20094;-83
2023/10/04 02:10:12;;;;;;;2.88;0.70;;;;;;;11.32;81.18;99928.19;5069696;28;20051;-83
2023/10/04 02:12:41;;;;;;;6.18;0.77;;;;;;;11.31;81.05;99938.72;5070687;28;20382;-85
2023/10/04 02:15:13;;;;;;;2.88;0.63;;;;;;;11.30;80.81;99943.09;5071401;28;20044;-84
2023/10/04 02:17:42;;;;;;;2.85;0.80;;;;;;;11.28;80.94;99939.69;5070945;28;20082;-73
2023/10/04 02:20:13;;;;;;;2.85;0.52;;;;;;;11.26;81.01;99954.56;5069721;28;20113;-72
2023/10/04 02:22:40;;;;;;;4.75;0.70;;;;;;;11.26;81.05;99949.31;5068415;28;20040;-72
2023/10/04 02:25:11;;;;;;;5.45;0.50;;;;;;;11.26;81.11;99959.78;5059198;28;20063;-72
2023/10/04 02:27:41;;;;;;;4.05;0.60;;;;;;;11.24;81.07;99961.59;5064085;28;20053;-72
2023/10/04 02:30:13;;;;;;;13.30;1.05;;;;;;;11.23;81.26;99954.66;5067660;28;20532;-73
2023/10/04 02:32:42;;;;;;;8.27;0.73;;;;;;;11.23;81.26;99952.88;5064302;28;20048;-71
2023/10/04 02:35:11;;;;;;;2.85;0.60;;;;;;;11.23;81.24;99959.88;5067335;28;20058;-72
2023/10/04 02:37:42;;;;;;;4.28;0.93;;;;;;;11.23;81.44;99959.88;5064606;28;20041;-73
2023/10/04 02:40:14;;;;;;;5.20;0.70;;;;;;;11.22;81.36;99959.03;5063859;28;20052;-73
2023/10/04 02:42:45;;;;;;;2.42;0.50;;;;;;;11.22;81.29;99959.03;5061911;28;20058;-73
2023/10/04 02:45:18;;;;;;;8.18;0.60;;;;;;;11.22;81.40;99952.97;5066285;28;20547;-71
2023/10/04 02:47:49;;;;;;;2.25;0.57;;;;;;;11.22;81.41;99956.41;5062239;28;20545;-73
2023/10/04 02:50:17;;;;;;;4.03;0.82;;;;;;;11.21;81.22;99953.84;5061861;28;20044;-73
2023/10/04 02:52:45;;;;;;;2.40;0.63;;;;;;;11.20;81.29;99966.06;5061371;28;20043;-72
2023/10/04 02:55:17;;;;;;;0.73;0.50;;;;;;;11.20;81.14;99960.00;5065366;28;20728;-72
2023/10/04 02:57:47;;;;;;;5.95;0.65;;;;;;;11.18;81.09;99960.03;5069483;28;20051;-73
2023/10/04 03:00:19;;;;;;;2.13;0.57;;;;;;;11.18;81.26;99960.03;5067057;28;20051;-73
2023/10/04 03:02:47;;;;;;;5.07;0.70;;;;;;;11.18;81.21;99959.19;5067156;28;20053;-73
2023/10/04 03:05:18;;;;;;;7.82;1.00;;;;;;;11.15;81.13;99962.75;5068174;28;20496;-72
2023/10/04 03:07:47;;;;;;;3.53;0.88;;;;;;;11.16;81.07;99961.88;5064933;28;20048;-72
2023/10/04 03:10:23;;;;;;;9.25;1.75;;;;;;;11.15;81.01;99962.75;5068506;28;20079;-73
2023/10/04 03:12:53;;;;;;;4.05;0.65;;;;;;;11.14;81.20;99961.06;5065153;28;20044;-73
2023/10/04 03:15:23;;;;;;;6.90;0.90;;;;;;;11.14;81.06;99960.22;5077269;28;20049;-72
2023/10/04 03:17:52;;;;;;;3.33;0.60;;;;;;;11.12;81.10;99954.16;5066382;28;20049;-73
2023/10/04 03:20:21;;;;;;;4.63;0.60;;;;;;;11.10;80.74;99949.00;5069202;28;20048;-73
2023/10/04 03:22:49;;;;;;;6.28;0.63;;;;;;;11.11;81.09;99953.31;5061438;28;20160;-73
2023/10/04 03:25:17;;;;;;;6.40;0.50;;;;;;;11.09;81.02;99959.50;5067256;28;20055;-73
2023/10/04 03:27:47;;;;;;;7.07;0.90;;;;;;;11.09;80.87;99964.72;5068317;28;20493;-85
2023/10/04 03:30:16;;;;;;;7.88;0.95;;;;;;;11.09;81.43;99967.34;5070241;28;20443;-85
2023/10/04 03:32:45;;;;;;;4.00;0.80;;;;;;;11.08;81.15;99968.25;5071017;28;20059;-86
2023/10/04 03:35:14;;;;;;;5.78;0.68;;;;;;;11.09;81.31;99969.97;5068571;28;20048;-85
2023/10/04 03:37:49;;;;;;;3.22;0.68;;;;;;;11.03;81.37;99961.41;5071359;28;20121;-85
2023/10/04 03:40:17;;;;;;;4.75;1.15;;;;;;;11.07;81.34;99966.53;5070681;28;20056;-85
2023/10/04 03:42:46;;;;;;;3.78;1.60;;;;;;;11.08;81.43;99968.25;5070421;28;20040;-86
2023/10/04 03:45:14;;;;;;;6.03;0.60;;;;;;;10.96;81.24;99954.69;5061773;28;20049;-85
2023/10/04 03:47:42;;;;;;;5.15;1.58;;;;;;;11.06;81.59;99964.84;5068884;28;20516;-73
2023/10/04 03:50:11;;;;;;;6.45;1.88;;;;;;;11.08;81.49;99978.72;5070679;28;20052;-74
2023/10/04 03:52:39;;;;;;;7.85;1.10;;;;;;;11.08;81.41;99971.72;5068594;28;20048;-74
2023/10/04 03:55:10;;;;;;;8.88;0.68;;;;;;;11.08;81.72;99970.88;5066232;28;20053;-72
2023/10/04 03:57:38;;;;;;;9.38;1.00;;;;;;;11.09;81.92;99972.56;5059608;28;20176;-74
2023/10/04 04:00:10;;;;;;;7.80;0.88;;;;;;;11.09;81.64;99975.19;5043866;28;20044;-73
2023/10/04 04:02:39;;;;;;;2.95;1.10;;;;;;;11.06;81.84;99965.69;5063275;28;20075;-74
2023/10/04 04:05:09;;;;;;;4.15;0.88;;;;;;;11.11;82.17;99973.38;5068645;28;20052;-73
2023/10/04 04:07:36;;;;;;;4.60;0.85;;;;;;;11.09;81.94;99960.34;5059109;28;20048;-73
2023/10/04 04:10:04;;;;;;;3.67;0.52;;;;;;;11.11;82.02;99966.38;5058985;28;20060;-74
2023/10/04 04:12:31;;;;;;;7.78;1.70;;;;;;;11.13;82.17;99971.56;5063764;28;20037;-73
2023/10/04 04:14:57;;;;;;;7.78;1.25;;;;;;;11.14;82.17;99968.03;5064281;28;20587;-73
2023/10/04 04:17:27;;;;;;;1.70;0.70;;;;;;;11.14;82.06;99962.81;5062239;28;20067;-74
2023/10/04 04:19:53;;;;;;;7.75;0.50;;;;;;;11.15;82.10;99965.38;5067671;28;20485;-73
2023/10/04 04:22:25;;;;;;;3.90;0.60;;;;;;;11.15;82.35;99964.53;5066342;28;20053;-73
2023/10/04 04:24:52;;;;;;;3.28;0.70;;;;;;;11.18;81.98;99961.78;5063197;28;20054;-73
2023/10/04 04:27:22;;;;;;;3.05;0.60;;;;;;;11.17;82.46;99966.19;5071293;28;20493;-73
2023/10/04 04:29:52;;;;;;;8.48;0.80;;;;;;;11.19;82.31;99968.75;5060872;28;20060;-73
2023/10/04 04:32:24;;;;;;;2.85;0.60;;;;;;;11.19;82.38;99971.38;5065113;28;20045;-73
2023/10/04 04:34:51;;;;;;;10.23;1.05;;;;;;;11.19;82.25;99963.53;5062117;28;20044;-73
2023/10/04 04:37:19;;;;;;;3.20;0.80;;;;;;;11.22;82.45;99966.03;5067666;28;20053;-71
2023/10/04 04:39:47;;;;;;;6.57;0.80;;;;;;;11.21;82.44;99966.91;5063322;28;20083;-71
2023/10/04 04:42:20;;;;;;;7.03;0.70;;;;;;;11.18;82.56;99964.41;5067450;28;20094;-71
2023/10/04 04:44:47;;;;;;;6.88;0.60;;;;;;;11.24;82.51;99980.75;5055251;28;20106;-71
2023/10/04 04:47:18;;;;;;;2.92;0.60;;;;;;;11.25;82.59;99968.53;5061312;28;20052;-71
2023/10/04 04:49:45;;;;;;;5.25;0.73;;;;;;;11.25;82.58;99969.38;5065802;28;20056;-71
2023/10/04 04:52:13;;;;;;;3.78;0.50;;;;;;;11.25;82.43;99972.00;5061952;28;20080;-71
2023/10/04 04:54:39;;;;;;;21.27;2.92;;;;;;;11.26;82.30;99963.25;5068468;28;20041;-73
2023/10/04 04:57:10;;;;;;;2.15;0.60;;;;;;;11.28;82.48;99964.97;5063898;28;20045;-72
2023/10/04 04:59:39;;;;;;;4.20;0.50;;;;;;;11.28;82.52;99971.03;5068881;28;20416;-72
2023/10/04 05:02:08;;;;;;;3.47;0.60;;;;;;;11.30;82.64;99968.38;5061045;28;20044;-73
2023/10/04 05:04:36;;;;;;;6.82;0.68;;;;;;;11.28;82.50;99971.03;5067441;28;20045;-72
2023/10/04 05:07:06;;;;;;;5.32;1.00;;;;;;;11.30;82.52;99974.47;5058566;28;20434;-72
2023/10/04 05:09:34;;;;;;;6.75;0.70;;;;;;;11.31;82.40;99965.72;5067973;28;20126;-72
2023/10/04 05:12:01;;;;;;;5.50;0.50;;;;;;;11.32;82.60;99971.78;5061174;28;20622;-73
2023/10/04 05:14:29;;;;;;;3.28;0.47;;;;;;;11.30;82.47;99966.63;5069270;28;20041;-72
2023/10/04 05:16:56;;;;;;;5.18;0.70;;;;;;;11.33;82.42;99968.28;5065231;28;20051;-72
2023/10/04 05:19:23;;;;;;;5.80;0.60;;;;;;;11.32;82.55;99980.47;5072549;28;20052;-73
2023/10/04 05:21:50;;;;;;;8.48;0.70;;;;;;;11.33;82.48;99976.13;5067616;28;20051;-72
2023/10/04 05:24:17;;;;;;;3.72;0.45;;;;;;;11.34;82.54;99975.22;5068130;28;20155;-73
2023/10/04 05:26:44;;;;;;;3.47;0.43;;;;;;;11.34;82.36;99975.22;5064579;28;20788;-73
2023/10/04 05:29:12;;;;;;;5.53;0.70;;;;;;;11.34;82.53;99986.53;5069442;28;20398;-73
2023/10/04 05:31:42;;;;;;;4.80;0.70;;;;;;;11.35;82.38;99987.38;5059190;28;20421;-73
2023/10/04 05:34:10;;;;;;;4.00;0.40;;;;;;;11.35;82.49;99988.22;5065589;28;20101;-73
2023/10/04 05:36:39;;;;;;;5.68;0.50;;;;;;;11.36;82.61;100005.63;5067040;28;20051;-74
2023/10/04 05:39:08;;;;;;;7.38;1.05;;;;;;;11.36;82.58;100002.16;5073123;28;20051;-73
2023/10/04 05:41:35;;;;;;;8.27;0.57;;;;;;;11.37;82.27;100001.25;5073978;28;20044;-72
2023/10/04 05:44:03;;;;;;;5.03;0.50;;;;;;;11.38;82.20;100006.41;5060444;28;20164;-73
2023/10/04 05:46:30;;;;;;;3.97;0.57;;;;;;;11.39;82.29;100005.53;5069578;28;20699;-72
2023/10/04 05:48:58;;;;;;;1.30;0.45;;;;;;;11.39;82.45;100010.75;5062952;28;20767;-76
2023/10/04 05:51:25;;;;;;;5.88;1.50;;;;;;;11.39;82.47;100008.16;5064607;28;20045;-77
2023/10/04 05:53:52;;;;;;;3.55;0.65;;;;;;;11.39;82.37;100010.75;5067372;28;20044;-76
2023/10/04 05:56:21;;;;;;;3.33;0.32;;;;;;;11.37;82.43;100011.72;5070898;28;20448;-73
2023/10/04 05:58:48;;;;;;;4.95;0.70;;;;;;;11.42;82.51;100020.25;5064945;28;20055;-74
2023/10/04 06:01:17;;;;;;;3.97;0.45;;;;;;;11.43;82.52;100022.81;5065932;28;20050;-73
2023/10/04 06:03:45;;;;;;;1.95;0.40;;;;;;;11.44;82.45;100021.91;5062526;28;20513;-74
2023/10/04 06:06:13;;;;;;;2.72;0.47;;;;;;;11.47;82.51;100024.44;5066253;28;20051;-74
2023/10/04 06:08:40;;;;;;;3.70;0.63;;;;;;;11.47;82.45;100024.44;5062209;28;20588;-74
2023/10/04 06:11:07;;;;;;;5.47;0.60;;;;;;;11.49;82.41;100030.44;5067265;28;20051;-74
2023/10/04 06:13:34;;;;;;;6.15;1.30;;;;;;;11.52;82.55;100036.47;5064666;28;20053;-73
2023/10/04 06:16:02;;;;;;;2.60;0.38;;;;;;;11.51;82.31;100034.78;5066776;28;20490;-74
2023/10/04 06:18:29;;;;;;;5.28;1.33;;;;;;;11.54;82.36;100045.13;5068875;28;20489;-74
2023/10/04 06:20:56;;;;;;;4.88;0.68;;;;;;;11.55;82.26;100037.22;5070891;28;20040;-74
2023/10/04 06:23:25;;;;;;;7.80;0.60;;;;;;;11.53;82.18;100032.97;5060490;28;20685;-74
2023/10/04 06:25:52;;;;;;;2.63;0.40;;;;;;;11.57;82.37;100040.66;5065236;28;20144;-74
2023/10/04 06:28:19;;;;;;;7.13;0.50;;;;;;;11.59;82.33;100038.84;5064481;28;20421;-74
2023/10/04 06:30:48;;;;;;;6.88;0.45;;;;;;;11.60;82.22;100040.53;5072078;28;20043;-74
2023/10/04 06:33:16;;;;;;;3.35;0.40;;;;;;;11.61;82.08;100044.88;5056669;28;20052;-74
2023/10/04 06:35:44;;;;;;;4.75;0.52;;;;;;;11.63;82.18;100050.03;5066200;28;20101;-74
2023/10/04 06:38:13;;;;;;;2.63;0.40;;;;;;;11.58;82.22;100039.72;5065541;28;20057;-74
2023/10/04 06:40:42;;;;;;;5.70;0.93;;;;;;;11.67;82.09;100056.91;5066854;28;20058;-74
2023/10/04 06:43:10;;;;;;;5.75;0.88;;;;;;;11.68;81.96;100053.38;5064217;28;20102;-74
2023/10/04 06:45:39;;;;;;;6.05;0.50;;;;;;;11.70;82.01;100062.03;5070560;28;20040;-73
2023/10/04 06:48:06;;;;;;;4.85;0.40;;;;;;;11.70;82.07;100060.25;5069200;28;20067;-73
2023/10/04 06:50:38;;;;;;;2.67;0.40;;;;;;;11.73;81.95;100061.91;5065841;28;20044;-74
2023/10/04 06:53:06;;;;;;;6.38;0.43;;;;;;;11.75;82.04;100060.09;5065333;28;20063;-74
2023/10/04 06:55:34;;;;;;;7.10;0.55;;;;;;;11.76;82.06;100067.03;5066083;28;20097;-74
2023/10/04 06:58:02;;;;;;;3.03;0.57;;;;;;;11.78;82.25;100064.34;5072262;28;20040;-73
2023/10/04 07:00:31;;;;;;;5.72;0.57;;;;;;;11.79;81.91;100072.16;5063247;28;20494;-73
2023/10/04 07:02:59;;;;;;;7.85;0.63;;;;;;;11.83;81.91;100067.66;5072833;28;20051;-73
2023/10/04 07:05:29;;;;;;;3.75;0.50;;;;;;;11.84;81.77;100065.00;5058903;28;21069;-73
2023/10/04 07:07:57;;;;;;;7.97;0.60;;;;;;;11.85;81.62;100082.44;5069985;28;20052;-73
2023/10/04 07:10:26;;;;;;;4.43;0.50;;;;;;;11.87;81.51;100072.78;5059549;28;20059;-74
2023/10/04 07:12:54;;;;;;;2.40;0.60;;;;;;;11.89;81.81;100081.41;5063359;28;20064;-73
2023/10/04 07:15:24;;;;;;;7.13;0.57;;;;;;;11.91;81.70;100079.63;5056941;28;20796;-74
2023/10/04 07:17:52;;;;;;;5.00;0.40;;;;;;;11.93;81.59;100077.81;5068378;28;20052;-72
2023/10/04 07:20:19;;;;;;;5.60;0.50;;;;;;;11.97;81.55;100075.06;5064230;28;20539;-72
2023/10/04 07:22:50;;;;;;;5.30;0.50;;;;;;;11.99;81.43;100068.03;5066720;28;20040;-73
2023/10/04 07:25:18;;;;;;;5.10;0.40;;;;;;;12.02;81.64;100075.78;5059127;28;20098;-73
2023/10/04 07:27:47;;;;;;;7.90;0.50;;;;;;;12.02;81.35;100067.91;5060310;28;20420;-72
2023/10/04 07:30:14;;;;;;;5.85;0.57;;;;;;;12.06;81.58;100077.34;5062364;28;20045;-73
2023/10/04 07:32:44;;;;;;;7.22;0.40;;;;;;;12.09;81.61;100074.63;5070376;28;20044;-73
2023/10/04 07:35:13;;;;;;;8.23;0.60;;;;;;;12.07;81.47;100073.84;5067602;28;20497;-72
2023/10/04 07:37:41;;;;;;;4.95;0.40;;;;;;;12.14;81.33;100084.03;5061682;28;20105;-73
2023/10/04 07:40:10;;;;;;;7.45;1.05;;;;;;;12.18;81.39;100079.56;5066745;28;20062;-73
2023/10/04 07:42:38;;;;;;;3.90;0.90;;;;;;;12.21;81.51;100084.69;5066799;28;20099;-72
2023/10/04 07:45:07;;;;;;;7.53;0.50;;;;;;;12.24;81.33;100081.94;5059158;28;20049;-73
2023/10/04 07:47:36;;;;;;;6.40;0.43;;;;;;;12.28;81.50;100074.81;5066348;28;20989;-73
2023/10/04 07:50:09;;;;;;;4.45;0.40;;;;;;;12.31;81.02;100075.56;5068611;28;20163;-73
2023/10/04 07:52:37;;;;;;;1.85;0.30;;;;;;;12.35;80.97;100077.19;5063616;28;20056;-72
2023/10/04 07:55:05;;;;;;;4.57;0.43;;;;;;;12.40;80.75;100084.84;5057714;28;20049;-73
2023/10/04 07:57:35;;;;;;;2.17;0.47;;;;;;;12.42;80.75;100084.81;5062957;28;20040;-73
2023/10/04 08:00:04;;;;;;;4.10;0.85;;;;;;;12.46;80.47;100084.59;5071636;28;20508;-72
2023/10/04 08:02:31;;;;;;;5.82;0.50;;;;;;;12.50;80.15;100080.13;5064351;28;20049;-72
2023/10/04 08:04:58;;;;;;;9.07;0.40;;;;;;;12.53;79.96;100077.41;5073803;28;20044;-73
2023/10/04 08:07:26;;;;;;;3.00;0.50;;;;;;;12.50;79.93;100074.91;5062035;28;20044;-73
2023/10/04 08:09:53;;;;;;;3.45;0.70;;;;;;;12.61;79.99;100093.69;5034035;28;20420;-73
2023/10/04 08:12:20;;;;;;;6.13;0.93;;;;;;;12.60;79.81;100077.09;5063447;28;20043;-73
2023/10/04 08:14:50;;;;;;;2.25;0.40;;;;;;;12.69;79.65;100091.59;5066778;28;20057;-73
2023/10/04 08:17:17;;;;;;;2.72;0.32;;;;;;;12.72;79.76;100085.41;5061838;28;20382;-74
2023/10/04 08:19:44;;;;;;;1.10;0.30;;;;;;;12.73;79.45;100085.34;5060087;28;20076;-71
2023/10/04 08:22:11;;;;;;;3.35;0.60;;;;;;;12.80;79.32;100094.66;5061679;28;20110;-72
2023/10/04 08:24:40;;;;;;;4.18;0.30;;;;;;;12.83;79.00;100089.34;5056710;28;20048;-74
2023/10/04 08:27:10;;;;;;;6.03;0.43;;;;;;;12.87;78.92;100090.06;5061319;28;20501;-76
2023/10/04 08:29:37;;;;;;;5.55;0.88;;;;;;;12.89;78.67;100082.13;5060254;28;20094;-74
2023/10/04 08:32:04;;;;;;;2.53;0.40;;;;;;;12.90;78.45;100082.06;5068377;28;20049;-75
2023/10/04 08:34:31;;;;;;;6.82;1.10;;;;;;;12.96;78.67;100083.59;5061028;28;20052;-74
2023/10/04 08:36:59;;;;;;;4.63;0.52;;;;;;;13.01;78.38;100084.28;5061571;28;20052;-74
2023/10/04 08:39:27;;;;;;;4.05;0.52;;;;;;;13.03;78.52;100096.41;5055922;28;20055;-75
2023/10/04 08:41:55;;;;;;;3.25;0.30;;;;;;;13.07;78.12;100097.16;5067747;28;20403;-76
2023/10/04 08:44:22;;;;;;;3.70;0.30;;;;;;;13.09;77.70;100090.09;5064622;28;20054;-75
2023/10/04 08:46:53;;;;;;;5.97;0.40;;;;;;;13.12;78.05;100095.19;5064541;28;20049;-75
2023/10/04 08:49:25;;;;;;;1.80;0.40;;;;;;;13.14;77.50;100080.25;5067840;28;20048;-76
2023/10/04 08:51:59;;;;;;;5.07;0.50;;;;;;;13.18;77.28;100083.63;5068111;28;20048;-76
2023/10/04 08:54:28;;;;;;;2.88;0.30;;;;;;;13.20;77.28;100082.59;5064939;28;20044;-76
2023/10/04 08:57:04;;;;;;;4.85;0.30;;;;;;;13.22;77.25;100074.69;5066830;28;20052;-76
2023/10/04 08:59:32;;;;;;;5.40;0.40;;;;;;;13.24;76.84;100084.22;5072138;28;20067;-75
2023/10/04 09:02:01;;;;;;;3.72;0.20;;;;;;;13.26;76.36;100077.19;5069180;28;20058;-76
2023/10/04 09:04:29;;;;;;;1.25;0.30;;;;;;;13.20;76.44;100069.50;5073065;28;20048;-75
2023/10/04 09:06:57;;;;;;;1.63;0.20;;;;;;;13.34;76.55;100095.19;5065994;28;20060;-76
2023/10/04 09:09:24;;;;;;;3.55;0.22;;;;;;;13.36;76.41;100109.13;5073411;28;20045;-76
2023/10/04 09:11:51;;;;;;;3.28;0.20;;;;;;;13.40;76.53;100096.72;5065656;28;20073;-76
2023/10/04 09:14:20;;;;;;;3.22;0.77;;;;;;;13.41;76.06;100099.28;5066658;28;20041;-78
2023/10/04 09:17:04;;;;;;;7.32;0.30;;;;;;;13.46;76.29;100096.47;5061007;28;20993;-73
2023/10/04 09:19:35;;;;;;;1.48;0.20;;;;;;;13.47;76.08;100092.94;5074565;28;20166;-74
2023/10/04 09:22:06;;;;;;;6.18;0.40;;;;;;;13.49;76.16;100099.00;5064918;28;20052;-74
2023/10/04 09:24:37;;;;;;;4.47;0.77;;;;;;;13.52;75.62;100093.63;5061902;28;20094;-73
2023/10/04 09:27:04;;;;;;;4.57;0.20;;;;;;;13.56;75.18;100092.56;5067561;28;20063;-75
2023/10/04 09:29:35;;;;;;;5.68;0.30;;;;;;;13.57;74.75;100102.13;5065701;28;20056;-74
2023/10/04 09:32:03;;;;;;;1.40;0.20;;;;;;;13.60;74.77;100101.16;5063077;28;20076;-73
2023/10/04 09:34:33;;;;;;;5.65;0.20;;;;;;;13.61;75.06;100098.47;5069104;28;20416;-74
2023/10/04 09:37:00;;;;;;;1.73;0.25;;;;;;;13.64;74.62;100108.00;5063117;28;20075;-76
2023/10/04 09:39:31;;;;;;;2.40;0.20;;;;;;;13.51;74.51;100091.88;5076246;28;20061;-79
2023/10/04 09:41:59;;;;;;;4.25;0.20;;;;;;;13.57;74.29;100091.63;5071325;28;20052;-78
2023/10/04 09:44:29;;;;;;;0.75;0.30;;;;;;;13.65;74.21;100105.28;5068846;28;20070;-78
2023/10/04 09:47:00;;;;;;;5.50;0.30;;;;;;;13.67;73.81;100108.72;5073797;28;20056;-81
2023/10/04 09:49:28;;;;;;;2.97;0.20;;;;;;;13.64;73.86;100097.50;5062389;28;20048;-80
2023/10/04 09:51:56;;;;;;;3.42;0.20;;;;;;;13.70;73.87;100108.56;5061515;28;20516;-80
2023/10/04 09:54:23;;;;;;;2.75;0.50;;;;;;;13.69;73.61;100112.13;5065880;28;20435;-80
2023/10/04 09:56:54;;;;;;;2.28;0.20;;;;;;;13.71;73.32;100109.44;5069006;28;20532;-80
2023/10/04 09:59:21;;;;;;;2.03;0.20;;;;;;;13.67;73.18;100100.84;5056499;28;20037;-77
2023/10/04 10:01:54;;;;;;;0.55;0.22;;;;;;;13.67;72.82;100100.84;5072486;28;20050;-77
2023/10/04 10:04:26;;;;;;;0.73;0.20;;;;;;;13.70;73.09;100111.19;5067510;28;20124;-77
2023/10/04 10:07:16;;;;;;;0.65;0.10;;;;;;;13.73;73.08;100118.94;5071124;28;20444;-78
2023/10/04 10:09:58;;;;;;;1.65;0.20;;;;;;;13.74;73.11;100119.78;5062221;28;20076;-76
2023/10/04 10:12:29;;;;;;;1.17;0.10;;;;;;;13.73;72.83;100124.19;5070468;28;20531;-79
2023/10/04 10:14:57;;;;;;;0.65;0.20;;;;;;;13.71;72.75;100123.41;5068029;28;20052;-77
2023/10/04 10:17:24;;;;;;;4.03;0.10;;;;;;;13.73;72.49;100129.44;5068004;28;20507;-77
2023/10/04 10:19:52;;;;;;;3.63;0.17;;;;;;;13.75;72.42;100120.69;5066480;28;20383;-76
2023/10/04 10:22:19;;;;;;;3.70;0.15;;;;;;;13.74;72.68;100127.66;5075147;28;20501;-77
2023/10/04 10:24:48;;;;;;;1.55;0.20;;;;;;;13.76;72.15;100112.72;5069096;28;20062;-76
2023/10/04 10:27:19;;;;;;;3.15;0.20;;;;;;;13.78;72.27;100125.78;5065115;28;20053;-74
2023/10/04 10:29:47;;;;;;;2.92;0.22;;;;;;;13.76;72.55;100123.22;5063793;28;20409;-73
2023/10/04 10:32:20;;;;;;;4.15;0.25;;;;;;;13.81;72.20;100125.66;5069295;28;20045;-73
2023/10/04 10:34:49;;;;;;;1.67;0.10;;;;;;;13.80;72.08;100135.28;5058969;28;20155;-75
2023/10/04 10:37:19;;;;;;;1.27;0.20;;;;;;;13.82;71.59;100128.19;5064647;28;20041;-74
2023/10/04 10:39:49;;;;;;;2.40;0.20;;;;;;;13.83;71.23;100126.44;5070021;28;20134;-75
2023/10/04 10:42:15;;;;;;;0.82;0.10;;;;;;;13.82;71.26;100133.47;5066724;28;20496;-73
2023/10/04 10:44:43;;;;;;;2.28;0.80;;;;;;;13.81;71.25;100136.16;5063506;28;20056;-75
2023/10/04 10:47:19;;;;;;;2.47;0.20;;;;;;;13.81;71.49;100137.00;5065593;28;20086;-79
2023/10/04 10:49:52;;;;;;;2.00;0.10;;;;;;;13.82;71.15;100137.84;5060189;28;20132;-76
2023/10/04 10:52:41;;;;;;;6.22;0.75;;;;;;;13.79;71.44;100132.75;5062147;28;20051;-74
2023/10/04 10:55:14;;;;;;;1.10;0.10;;;;;;;13.82;71.25;100140.47;5065311;28;20060;-76
2023/10/04 10:57:44;;;;;;;2.97;0.20;;;;;;;13.80;71.32;100150.19;5057636;28;20048;-75
2023/10/04 11:00:18;;;;;;;2.65;0.10;;;;;;;13.81;70.99;100141.41;5067114;28;20136;-80
2023/10/04 11:02:45;;;;;;;0.70;0.20;;;;;;;13.81;71.22;100151.91;5067632;28;20671;-76
2023/10/04 11:05:16;;;;;;;1.23;0.65;;;;;;;13.79;71.28;100138.00;5067698;28;20053;-75
2023/10/04 11:07:46;;;;;;;2.47;0.10;;;;;;;13.78;70.88;100147.63;5067370;28;20052;-76
2023/10/04 11:10:16;;;;;;;2.17;0.10;;;;;;;13.79;71.29;100138.84;5064626;28;20109;-75
2023/10/04 11:12:44;;;;;;;2.30;0.10;;;;;;;13.78;71.13;100145.00;5068455;28;20417;-78
2023/10/04 11:15:11;;;;;;;6.18;0.20;;;;;;;13.81;71.19;100146.66;5070039;28;20080;-77
2023/10/04 11:17:39;;;;;;;1.40;0.30;;;;;;;13.76;70.93;100144.22;5066959;28;20048;-76
2023/10/04 11:20:09;;;;;;;0.20;0.10;;;;;;;13.82;71.14;100153.59;5066066;28;20052;-76
2023/10/04 11:22:37;;;;;;;0.98;0.10;;;;;;;13.83;71.08;100155.31;5071640;28;20040;-76
2023/10/04 11:25:07;;;;;;;1.48;0.10;;;;;;;13.83;70.69;100156.19;5059255;28;20996;-77
2023/10/04 11:27:36;;;;;;;3.05;0.05;;;;;;;13.85;70.63;100163.97;5066146;28;20037;-74
2023/10/04 11:30:05;;;;;;;3.30;0.13;;;;;;;13.85;70.37;100163.97;5061955;28;20471;-75
2023/10/04 11:32:32;;;;;;;1.38;0.10;;;;;;;13.85;69.97;100163.97;5063339;28;20448;-76
2023/10/04 11:35:07;;;;;;;6.13;0.75;;;;;;;13.83;69.72;100160.56;5068017;28;20051;-75
2023/10/04 11:37:34;;;;;;;1.75;0.10;;;;;;;13.83;69.47;100171.94;5062759;28;20082;-81